sensor_id;sensor_type;location;lat;lon;timestamp;P1;durP1;ratioP1;P2;durP2;ratioP2
10142;SDS011;5112;54.088;13.446;2022-09-09T00:05:28;26.87;;;19.37;;
10142;SDS011;5112;54.088;13.446;2022-09-09T00:15:36;26.90;;;23.83;;
10142;SDS011;5112;54.088;13.446;2022-09-09T00:25:42;24.57;;;22.00;;
10142;SDS011;5112;54.088;13.446;2022-09-09T00:35:53;23.13;;;20.83;;
10142;SDS011;5112;54.088;13.446;2022-09-09T00:46:05;22.23;;;19.93;;
10142;SDS011;5112;54.088;13.446;2022-09-09T00:56:20;24.20;;;19.77;;
10142;SDS011;5112;54.088;13.446;2022-09-09T01:06:27;18.53;;;16.63;;
10142;SDS011;5112;54.088;13.446;2022-09-09T01:16:33;17.70;;;16.07;;
10142;SDS011;5112;54.088;13.446;2022-09-09T01:26:36;17.60;;;16.00;;
10142;SDS011;5112;54.088;13.446;2022-09-09T01:36:42;16.93;;;15.23;;
10142;SDS011;5112;54.088;13.446;2022-09-09T01:46:49;14.27;;;12.77;;
10142;SDS011;5112;54.088;13.446;2022-09-09T01:56:53;13.73;;;12.43;;
10142;SDS011;5112;54.088;13.446;2022-09-09T02:07:06;12.80;;;11.50;;
10142;SDS011;5112;54.088;13.446;2022-09-09T02:17:26;10.10;;;9.03;;
10142;SDS011;5112;54.088;13.446;2022-09-09T02:27:33;12.63;;;11.37;;
10142;SDS011;5112;54.088;13.446;2022-09-09T02:37:37;12.50;;;11.30;;
10142;SDS011;5112;54.088;13.446;2022-09-09T02:47:43;12.27;;;11.03;;
10142;SDS011;5112;54.088;13.446;2022-09-09T02:57:52;14.93;;;12.87;;
10142;SDS011;5112;54.088;13.446;2022-09-09T03:07:57;13.77;;;12.37;;
10142;SDS011;5112;54.088;13.446;2022-09-09T03:17:59;14.03;;;12.57;;
10142;SDS011;5112;54.088;13.446;2022-09-09T03:28:03;13.77;;;12.37;;
10142;SDS011;5112;54.088;13.446;2022-09-09T03:38:05;13.07;;;11.80;;
10142;SDS011;5112;54.088;13.446;2022-09-09T03:48:08;14.20;;;12.80;;
10142;SDS011;5112;54.088;13.446;2022-09-09T03:58:11;23.13;;;20.90;;
10142;SDS011;5112;54.088;13.446;2022-09-09T04:08:15;29.57;;;26.87;;
10142;SDS011;5112;54.088;13.446;2022-09-09T04:18:17;32.80;;;29.80;;
10142;SDS011;5112;54.088;13.446;2022-09-09T04:28:21;32.07;;;29.27;;
10142;SDS011;5112;54.088;13.446;2022-09-09T04:38:24;34.60;;;31.40;;
10142;SDS011;5112;54.088;13.446;2022-09-09T04:48:27;37.50;;;33.93;;
10142;SDS011;5112;54.088;13.446;2022-09-09T04:58:31;39.23;;;35.63;;
10142;SDS011;5112;54.088;13.446;2022-09-09T05:08:34;38.20;;;34.50;;
10142;SDS011;5112;54.088;13.446;2022-09-09T05:18:36;35.00;;;31.60;;
10142;SDS011;5112;54.088;13.446;2022-09-09T05:28:39;32.50;;;29.20;;
10142;SDS011;5112;54.088;13.446;2022-09-09T05:38:40;32.53;;;29.03;;
10142;SDS011;5112;54.088;13.446;2022-09-09T05:48:44;29.53;;;26.53;;
10142;SDS011;5112;54.088;13.446;2022-09-09T05:58:47;27.73;;;24.83;;
10142;SDS011;5112;54.088;13.446;2022-09-09T06:08:53;29.17;;;26.00;;
10142;SDS011;5112;54.088;13.446;2022-09-09T06:18:56;25.30;;;22.77;;
10142;SDS011;5112;54.088;13.446;2022-09-09T06:29:00;28.03;;;23.17;;
10142;SDS011;5112;54.088;13.446;2022-09-09T06:39:04;24.83;;;22.07;;
10142;SDS011;5112;54.088;13.446;2022-09-09T06:49:08;27.30;;;22.47;;
10142;SDS011;5112;54.088;13.446;2022-09-09T06:59:10;30.23;;;22.80;;
10142;SDS011;5112;54.088;13.446;2022-09-09T07:09:14;27.13;;;21.10;;
10142;SDS011;5112;54.088;13.446;2022-09-09T07:19:17;27.23;;;21.40;;
10142;SDS011;5112;54.088;13.446;2022-09-09T07:29:19;29.93;;;21.03;;
10142;SDS011;5112;54.088;13.446;2022-09-09T07:39:21;26.70;;;19.67;;
10142;SDS011;5112;54.088;13.446;2022-09-09T07:49:25;26.53;;;19.57;;
10142;SDS011;5112;54.088;13.446;2022-09-09T07:59:26;24.33;;;18.97;;
10142;SDS011;5112;54.088;13.446;2022-09-09T08:09:31;28.97;;;18.50;;
10142;SDS011;5112;54.088;13.446;2022-09-09T08:19:33;28.97;;;20.83;;
10142;SDS011;5112;54.088;13.446;2022-09-09T08:29:37;34.73;;;22.73;;
10142;SDS011;5112;54.088;13.446;2022-09-09T08:39:38;24.57;;;20.93;;
10142;SDS011;5112;54.088;13.446;2022-09-09T08:49:47;24.73;;;20.87;;
10142;SDS011;5112;54.088;13.446;2022-09-09T09:00:00;25.17;;;20.77;;
10142;SDS011;5112;54.088;13.446;2022-09-09T09:10:04;21.63;;;19.37;;
10142;SDS011;5112;54.088;13.446;2022-09-09T09:20:16;20.37;;;18.27;;
10142;SDS011;5112;54.088;13.446;2022-09-09T09:30:24;19.90;;;17.83;;
10142;SDS011;5112;54.088;13.446;2022-09-09T09:40:29;16.60;;;14.93;;
10142;SDS011;5112;54.088;13.446;2022-09-09T09:50:33;16.17;;;14.67;;
10142;SDS011;5112;54.088;13.446;2022-09-09T10:00:34;14.90;;;13.50;;
10142;SDS011;5112;54.088;13.446;2022-09-09T10:10:42;13.80;;;12.60;;
10142;SDS011;5112;54.088;13.446;2022-09-09T10:20:58;15.10;;;13.80;;
10142;SDS011;5112;54.088;13.446;2022-09-09T10:31:14;13.10;;;11.90;;
10142;SDS011;5112;54.088;13.446;2022-09-09T10:41:31;14.23;;;12.97;;
10142;SDS011;5112;54.088;13.446;2022-09-09T10:51:46;12.80;;;11.60;;
10142;SDS011;5112;54.088;13.446;2022-09-09T11:01:57;13.10;;;11.90;;
10142;SDS011;5112;54.088;13.446;2022-09-09T11:12:05;11.23;;;10.03;;
10142;SDS011;5112;54.088;13.446;2022-09-09T11:22:16;10.40;;;9.53;;
10142;SDS011;5112;54.088;13.446;2022-09-09T11:32:29;10.47;;;9.57;;
10142;SDS011;5112;54.088;13.446;2022-09-09T11:43:03;9.10;;;8.30;;
10142;SDS011;5112;54.088;13.446;2022-09-09T11:53:20;8.23;;;7.57;;
10142;SDS011;5112;54.088;13.446;2022-09-09T12:03:33;7.67;;;7.07;;
10142;SDS011;5112;54.088;13.446;2022-09-09T12:13:41;5.97;;;5.57;;
10142;SDS011;5112;54.088;13.446;2022-09-09T12:23:54;6.23;;;5.03;;
10142;SDS011;5112;54.088;13.446;2022-09-09T12:34:04;6.90;;;6.20;;
10142;SDS011;5112;54.088;13.446;2022-09-09T12:44:11;5.50;;;5.10;;
10142;SDS011;5112;54.088;13.446;2022-09-09T12:54:14;6.20;;;5.27;;
10142;SDS011;5112;54.088;13.446;2022-09-09T13:04:19;5.87;;;5.37;;
10142;SDS011;5112;54.088;13.446;2022-09-09T13:14:28;5.40;;;4.90;;
10142;SDS011;5112;54.088;13.446;2022-09-09T13:24:33;6.33;;;5.80;;
10142;SDS011;5112;54.088;13.446;2022-09-09T13:34:36;5.53;;;5.13;;
10142;SDS011;5112;54.088;13.446;2022-09-09T13:44:38;6.20;;;5.60;;
10142;SDS011;5112;54.088;13.446;2022-09-09T13:54:46;6.47;;;5.20;;
10142;SDS011;5112;54.088;13.446;2022-09-09T14:04:49;5.07;;;4.67;;
10142;SDS011;5112;54.088;13.446;2022-09-09T14:14:56;4.33;;;4.03;;
10142;SDS011;5112;54.088;13.446;2022-09-09T14:25:00;4.73;;;3.87;;
10142;SDS011;5112;54.088;13.446;2022-09-09T14:35:03;3.93;;;3.63;;
10142;SDS011;5112;54.088;13.446;2022-09-09T14:45:06;4.10;;;3.80;;
10142;SDS011;5112;54.088;13.446;2022-09-09T14:55:09;3.97;;;3.60;;
10142;SDS011;5112;54.088;13.446;2022-09-09T15:05:11;4.30;;;4.00;;
10142;SDS011;5112;54.088;13.446;2022-09-09T15:15:14;10.03;;;9.10;;
10142;SDS011;5112;54.088;13.446;2022-09-09T15:25:16;16.47;;;14.97;;
10142;SDS011;5112;54.088;13.446;2022-09-09T15:35:20;18.70;;;17.00;;
10142;SDS011;5112;54.088;13.446;2022-09-09T15:45:21;20.77;;;18.73;;
10142;SDS011;5112;54.088;13.446;2022-09-09T15:55:24;24.03;;;21.57;;
10142;SDS011;5112;54.088;13.446;2022-09-09T16:05:26;22.37;;;20.37;;
10142;SDS011;5112;54.088;13.446;2022-09-09T16:15:29;20.40;;;17.73;;
10142;SDS011;5112;54.088;13.446;2022-09-09T16:25:31;20.13;;;18.03;;
10142;SDS011;5112;54.088;13.446;2022-09-09T16:35:36;19.07;;;17.27;;
10142;SDS011;5112;54.088;13.446;2022-09-09T16:45:42;20.47;;;18.37;;
10142;SDS011;5112;54.088;13.446;2022-09-09T16:55:46;20.53;;;18.43;;
10142;SDS011;5112;54.088;13.446;2022-09-09T17:05:47;21.77;;;19.47;;
10142;SDS011;5112;54.088;13.446;2022-09-09T17:15:51;22.93;;;20.07;;
10142;SDS011;5112;54.088;13.446;2022-09-09T17:25:55;24.20;;;17.87;;
10142;SDS011;5112;54.088;13.446;2022-09-09T17:35:59;19.17;;;15.67;;
10142;SDS011;5112;54.088;13.446;2022-09-09T17:46:06;21.03;;;19.00;;
10142;SDS011;5112;54.088;13.446;2022-09-09T17:56:10;22.10;;;19.80;;
10142;SDS011;5112;54.088;13.446;2022-09-09T18:06:15;26.97;;;20.17;;
10142;SDS011;5112;54.088;13.446;2022-09-09T18:16:19;5.03;;;4.50;;
10142;SDS011;5112;54.088;13.446;2022-09-09T18:26:22;6.17;;;5.43;;
10142;SDS011;5112;54.088;13.446;2022-09-09T18:36:28;8.03;;;7.33;;
10142;SDS011;5112;54.088;13.446;2022-09-09T18:46:32;8.70;;;7.73;;
10142;SDS011;5112;54.088;13.446;2022-09-09T18:56:36;16.37;;;12.20;;
10142;SDS011;5112;54.088;13.446;2022-09-09T19:06:38;6.57;;;5.17;;
10142;SDS011;5112;54.088;13.446;2022-09-09T19:16:44;4.90;;;4.40;;
10142;SDS011;5112;54.088;13.446;2022-09-09T19:26:47;6.43;;;5.83;;
10142;SDS011;5112;54.088;13.446;2022-09-09T19:36:52;15.60;;;8.63;;
10142;SDS011;5112;54.088;13.446;2022-09-09T19:46:54;14.63;;;12.73;;
10142;SDS011;5112;54.088;13.446;2022-09-09T19:56:57;21.13;;;15.93;;
10142;SDS011;5112;54.088;13.446;2022-09-09T20:06:59;17.97;;;16.07;;
10142;SDS011;5112;54.088;13.446;2022-09-09T20:17:02;24.10;;;17.30;;
10142;SDS011;5112;54.088;13.446;2022-09-09T20:27:04;18.90;;;16.10;;
10142;SDS011;5112;54.088;13.446;2022-09-09T20:37:08;19.07;;;16.80;;
10142;SDS011;5112;54.088;13.446;2022-09-09T20:47:10;18.17;;;16.03;;
10142;SDS011;5112;54.088;13.446;2022-09-09T20:57:13;19.80;;;15.87;;
10142;SDS011;5112;54.088;13.446;2022-09-09T21:07:20;15.37;;;12.73;;
10142;SDS011;5112;54.088;13.446;2022-09-09T21:17:23;14.23;;;12.87;;
10142;SDS011;5112;54.088;13.446;2022-09-09T21:27:25;18.60;;;14.43;;
10142;SDS011;5112;54.088;13.446;2022-09-09T21:37:28;15.63;;;14.03;;
10142;SDS011;5112;54.088;13.446;2022-09-09T21:47:30;16.93;;;14.90;;
10142;SDS011;5112;54.088;13.446;2022-09-09T21:57:33;18.83;;;14.73;;
10142;SDS011;5112;54.088;13.446;2022-09-09T22:07:34;17.43;;;15.60;;
10142;SDS011;5112;54.088;13.446;2022-09-09T22:17:38;17.57;;;15.77;;
10142;SDS011;5112;54.088;13.446;2022-09-09T22:27:39;17.10;;;15.30;;
10142;SDS011;5112;54.088;13.446;2022-09-09T22:37:42;18.40;;;16.50;;
10142;SDS011;5112;54.088;13.446;2022-09-09T22:47:44;20.20;;;18.10;;
10142;SDS011;5112;54.088;13.446;2022-09-09T22:57:48;17.37;;;15.57;;
10142;SDS011;5112;54.088;13.446;2022-09-09T23:07:49;21.27;;;18.57;;
10142;SDS011;5112;54.088;13.446;2022-09-09T23:17:53;20.27;;;17.77;;
10142;SDS011;5112;54.088;13.446;2022-09-09T23:27:55;17.70;;;15.80;;
10142;SDS011;5112;54.088;13.446;2022-09-09T23:37:59;13.63;;;12.40;;
10142;SDS011;5112;54.088;13.446;2022-09-09T23:48:01;16.13;;;14.60;;
10142;SDS011;5112;54.088;13.446;2022-09-09T23:58:04;17.40;;;15.70;;
